FOOG

Details ICAO FOOG (POG)
Name Port Gentil
Region Gabon
Timezone Africa/Libreville (UTC+1.0)
Plans Departing 19
Arriving 24
Stats Elevation 13 ft / 4 m (AMSL)
Location -0.711739° 8.754382°
Runways 1
Magnetic Variation 2.365° W
Sunrise 2018-05-21 05:20:30 UTC / 2018-05-21 06:20:30 Local
Sunset 2018-05-21 17:25:30 UTC / 2018-05-21 18:25:30 Local
Advertisement - Login to hide

Runways

ID Width Length Bearing (true) Bearing (mag) Surface Threshold Offset Overrun Length
03 148 ft / 45 m 6,265 ft / 1,910 m 22.17° 24.54° Asphalt 0 ft / 0 m 0 ft / 0 m
21 148 ft / 45 m 6,265 ft / 1,910 m 202.17° 204.54° Asphalt 0 ft / 0 m 197 ft / 60 m

Map

Weather


0- 5 10 15 20 25 30 35+ Temperature / ° C

Clouds and Precipitation
Forecast for 2018-05-21 12:00 UTC. Updated 33 minutes ago

Ground ~20,000 ft ~40,000 ft Winds

METAR

FOOG 210900Z 15010KT 9999 SCT008 FEW020CB 28/25 Q1013

TAF

TAF FOOG 210500Z 2106/2206 18008KT 9999 SCT008 FEW020CB BKN030 TEMPO 2109/2112 TS PROB40 TEMPO 2112/2118 3500 TSRA BKN006 FEW016CB OVC025

Frequencies

Tower 118.30 MHz TWR
Warning: Do not use this data for real-world aviation or navigation. No guarantee of current accuracy is given.